Time;durP1;ratioP1;P1;durP2;ratioP2;P2;SDS_P1;SDS_P2;PMS_P1;PMS_P2;Temp;Humidity;BMP_temperature;BMP_pressure;BME280_temperature;BME280_humidity;BME280_pressure;Samples;Min_cycle;Max_cycle;Signal;HPM_P1;HPM_P2
2023/01/13 00:00:19;;;;;;;;;;;;;;;4.72;78.00;98160.31;5081983;28;4445;-78
2023/01/13 00:02:46;;;;;;;;;;;;;;;4.71;77.95;98156.03;5094140;28;4511;-78
2023/01/13 00:05:12;;;;;;;;;;;;;;;4.71;77.88;98150.72;5076310;28;4358;-78
2023/01/13 00:07:39;;;;;;;;;;;;;;;4.73;77.91;98153.13;5095454;28;4545;-78
2023/01/13 00:10:06;;;;;;;;;;;;;;;4.72;77.82;98154.19;5078603;28;4500;-78
2023/01/13 00:12:32;;;;;;;;;;;;;;;4.73;77.75;98150.44;5093867;28;4545;-78
2023/01/13 00:14:59;;;;;;;;;;;;;;;4.72;77.79;98152.31;5093234;28;4372;-78
2023/01/13 00:17:26;;;;;;;;;;;;;;;4.73;77.97;98153.13;5076717;28;4431;-78
2023/01/13 00:19:52;;;;;;;;;;;;;;;4.71;77.91;98139.25;5096156;28;4534;-78
2023/01/13 00:22:19;;;;;;;;;;;;;;;4.75;77.75;98130.50;5083074;28;4464;-78
2023/01/13 00:24:46;;;;;;;;;;;;;;;4.76;77.62;98133.97;5076280;28;4389;-78
2023/01/13 00:27:12;;;;;;;;;;;;;;;4.74;78.03;98128.09;5092915;28;4409;-78
2023/01/13 00:29:39;;;;;;;;;;;;;;;4.73;77.95;98127.25;5092190;28;4463;-78
2023/01/13 00:32:05;;;;;;;;;;;;;;;4.78;77.77;98137.22;5078099;28;4449;-78
2023/01/13 00:34:32;;;;;;;;;;;;;;;4.74;77.75;98126.22;5092252;28;4367;-78
2023/01/13 00:36:58;;;;;;;;;;;;;;;4.83;77.60;98139.19;5094083;28;4361;-78
2023/01/13 00:39:25;;;;;;;;;;;;;;;4.95;77.07;98138.03;5090715;28;4584;-78
2023/01/13 00:44:36;;;;;;;;;;;;;;;4.84;77.40;98132.78;5093121;28;4492;-78
2023/01/13 00:47:02;;;;;;;;;;;;;;;4.78;77.54;98129.22;5083323;28;4277;-78
2023/01/13 00:49:29;;;;;;;;;;;;;;;4.76;77.77;98134.81;5077977;28;4631;-78
2023/01/13 00:51:55;;;;;;;;;;;;;;;4.89;77.23;98130.22;5091364;28;4357;-78
2023/01/13 00:54:22;;;;;;;;;;;;;;;4.85;77.24;98132.53;5094141;28;4563;-78
2023/01/13 00:56:48;;;;;;;;;;;;;;;4.80;77.56;98134.31;5092312;28;4446;-78
2023/01/13 00:59:15;;;;;;;;;;;;;;;4.75;77.72;98114.50;5093892;28;4458;-78
2023/01/13 01:01:41;;;;;;;;;;;;;;;4.84;77.57;98114.91;5093199;28;4416;-78
2023/01/13 01:04:08;;;;;;;;;;;;;;;4.83;77.59;98112.50;5094913;28;4619;-78
2023/01/13 01:06:35;;;;;;;;;;;;;;;4.73;77.73;98100.59;5091438;28;4702;-78
2023/01/13 01:09:01;;;;;;;;;;;;;;;4.71;77.78;98099.25;5092484;28;4461;-79
2023/01/13 01:11:28;;;;;;;;;;;;;;;4.78;77.51;98090.03;5092096;28;4495;-78
2023/01/13 01:13:54;;;;;;;;;;;;;;;4.73;77.76;98089.94;5092747;28;4484;-79
2023/01/13 01:16:21;;;;;;;;;;;;;;;4.75;77.58;98089.69;5074262;28;4577;-79
2023/01/13 01:18:47;;;;;;;;;;;;;;;4.73;77.69;98095.25;5092697;28;4589;-79
2023/01/13 01:21:14;;;;;;;;;;;;;;;4.73;77.75;98087.25;5095304;28;4491;-79
2023/01/13 01:23:41;;;;;;;;;;;;;;;4.76;77.77;98085.97;5091539;28;4367;-79
2023/01/13 01:26:07;;;;;;;;;;;;;;;4.75;77.85;98079.84;5091395;28;4515;-79
2023/01/13 01:28:34;;;;;;;;;;;;;;;4.80;77.34;98073.78;5091438;28;4423;-79
2023/01/13 01:31:00;;;;;;;;;;;;;;;4.78;77.57;98074.03;5092112;28;4531;-79
2023/01/13 01:33:27;;;;;;;;;;;;;;;4.72;77.50;98071.53;5090267;28;4470;-79
2023/01/13 01:35:53;;;;;;;;;;;;;;;4.70;77.89;98061.09;5091842;28;4447;-79
2023/01/13 01:38:22;;;;;;;;;;;;;;;4.81;77.80;98054.06;5076150;28;4631;-79
2023/01/13 01:40:48;;;;;;;;;;;;;;;4.79;77.62;98048.16;5074644;28;4481;-79
2023/01/13 01:45:59;;;;;;;;;;;;;;;4.85;77.35;98041.84;5093463;28;4435;-79
2023/01/13 01:48:26;;;;;;;;;;;;;;;4.80;77.20;98051.66;5074541;28;4369;-79
2023/01/13 01:50:52;;;;;;;;;;;;;;;4.71;77.67;98037.91;5078082;28;4599;-79
2023/01/13 01:53:19;;;;;;;;;;;;;;;4.83;77.34;98038.63;5091537;28;4360;-78
2023/01/13 01:55:45;;;;;;;;;;;;;;;4.71;77.80;98033.38;5093771;28;4479;-79
2023/01/13 01:58:12;;;;;;;;;;;;;;;4.76;77.56;98027.31;5090773;28;4376;-79
2023/01/13 02:00:38;;;;;;;;;;;;;;;4.76;77.54;98017.47;5093133;28;4467;-79
2023/01/13 02:03:05;;;;;;;;;;;;;;;4.77;77.55;98016.41;5091043;28;4644;-79
2023/01/13 02:05:33;;;;;;;;;;;;;;;4.74;77.69;98019.56;5095111;28;4503;-79
2023/01/13 02:07:59;;;;;;;;;;;;;;;4.79;77.45;98013.47;5078029;28;4351;-79
2023/01/13 02:10:26;;;;;;;;;;;;;;;4.78;77.50;98012.69;5096882;28;4396;-79
2023/01/13 02:12:52;;;;;;;;;;;;;;;4.69;77.91;98003.47;5096418;28;4285;-79
2023/01/13 02:15:18;;;;;;;;;;;;;;;4.68;77.76;98001.06;5078137;28;4426;-79
2023/01/13 02:17:45;;;;;;;;;;;;;;;4.66;78.00;97989.84;5080112;28;4374;-79
2023/01/13 02:20:11;;;;;;;;;;;;;;;4.65;77.90;97989.03;5082923;28;4456;-78
2023/01/13 02:22:38;;;;;;;;;;;;;;;4.74;77.52;97981.44;5094770;28;4380;-78
2023/01/13 02:25:03;;;;;;;;;;;;;;;4.73;77.59;97974.47;5098008;28;4450;-79
2023/01/13 02:27:30;;;;;;;;;;;;;;;4.71;77.82;97976.59;5095007;28;4343;-78
2023/01/13 02:32:41;;;;;;;;;;;;;;;4.71;77.88;97973.91;5097262;28;4451;-79
2023/01/13 02:35:08;;;;;;;;;;;;;;;4.67;77.77;97959.44;5096296;28;4463;-79
2023/01/13 02:37:34;;;;;;;;;;;;;;;4.67;77.77;97964.78;5095617;28;4816;-79
2023/01/13 02:40:01;;;;;;;;;;;;;;;4.65;77.83;97959.69;5075975;28;4359;-79
2023/01/13 02:45:11;;;;;;;;;;;;;;;4.68;77.94;97953.06;5078376;28;4521;-79
2023/01/13 02:47:38;;;;;;;;;;;;;;;4.67;77.94;97960.25;5096671;28;4352;-79
2023/01/13 02:50:04;;;;;;;;;;;;;;;4.64;77.75;97954.59;5096341;28;4372;-79
2023/01/13 02:52:31;;;;;;;;;;;;;;;4.70;77.77;97949.09;5078920;28;4369;-79
2023/01/13 02:54:58;;;;;;;;;;;;;;;4.68;77.70;97950.41;5077466;28;4528;-79
2023/01/13 02:57:24;;;;;;;;;;;;;;;4.65;77.86;97945.56;5096224;28;4412;-79
2023/01/13 02:59:51;;;;;;;;;;;;;;;4.64;77.87;97946.59;5095319;28;4357;-79
2023/01/13 03:02:17;;;;;;;;;;;;;;;4.66;77.80;97941.84;5095345;28;4358;-79
2023/01/13 03:04:44;;;;;;;;;;;;;;;4.69;77.89;97947.50;5076431;28;4747;-79
2023/01/13 03:07:11;;;;;;;;;;;;;;;4.67;77.87;97930.91;5084451;28;4455;-79
2023/01/13 03:09:38;;;;;;;;;;;;;;;4.68;77.79;97923.75;5094365;28;4510;-79
2023/01/13 03:12:05;;;;;;;;;;;;;;;4.70;77.70;97926.97;5077158;28;4498;-79
2023/01/13 03:14:31;;;;;;;;;;;;;;;4.77;77.10;97915.06;5096944;28;4541;-79
2023/01/13 03:16:58;;;;;;;;;;;;;;;4.91;76.99;97917.38;5092959;28;4419;-79
2023/01/13 03:19:24;;;;;;;;;;;;;;;4.75;77.53;97901.16;5096434;28;4401;-79
2023/01/13 03:21:51;;;;;;;;;;;;;;;4.67;77.72;97904.25;5078566;28;4405;-79
2023/01/13 03:24:17;;;;;;;;;;;;;;;4.67;77.75;97900.78;5097300;28;4492;-79
2023/01/13 03:26:44;;;;;;;;;;;;;;;4.72;77.76;97887.53;5094044;28;4492;-79
2023/01/13 03:29:10;;;;;;;;;;;;;;;4.72;77.52;97883.00;5096099;28;4381;-79
2023/01/13 03:31:37;;;;;;;;;;;;;;;4.70;77.79;97882.44;5091508;28;4344;-79
2023/01/13 03:34:03;;;;;;;;;;;;;;;4.68;77.83;97875.75;5080224;28;4510;-79
2023/01/13 03:36:30;;;;;;;;;;;;;;;4.73;77.53;97875.81;5075868;28;5008;-79
2023/01/13 03:38:56;;;;;;;;;;;;;;;4.83;77.39;97872.47;5096759;28;4532;-79
2023/01/13 03:41:23;;;;;;;;;;;;;;;4.76;77.37;97873.47;5092120;28;4415;-79
2023/01/13 03:46:33;;;;;;;;;;;;;;;4.91;76.94;97856.84;5076376;28;4410;-79
2023/01/13 03:49:01;;;;;;;;;;;;;;;5.00;76.53;97859.91;5096328;28;4470;-80
2023/01/13 03:51:28;;;;;;;;;;;;;;;5.09;76.26;97853.06;5092324;28;4312;-79
2023/01/13 03:53:54;;;;;;;;;;;;;;;5.02;76.36;97849.75;5094435;28;4517;-79
2023/01/13 03:56:21;;;;;;;;;;;;;;;4.94;76.82;97847.53;5092033;28;4444;-79
2023/01/13 03:58:47;;;;;;;;;;;;;;;4.98;76.44;97844.13;5094043;28;4320;-79
2023/01/13 04:01:14;;;;;;;;;;;;;;;4.91;76.82;97837.34;5076314;28;4342;-79
2023/01/13 04:03:41;;;;;;;;;;;;;;;5.07;76.27;97831.16;5095223;28;4371;-79
2023/01/13 04:06:07;;;;;;;;;;;;;;;5.02;76.35;97828.41;5095945;28;4434;-79
2023/01/13 04:08:34;;;;;;;;;;;;;;;5.07;76.45;97830.34;5093714;28;4396;-79
2023/01/13 04:11:00;;;;;;;;;;;;;;;5.19;75.76;97818.47;5079240;28;4536;-79
2023/01/13 04:13:31;;;;;;;;;;;;;;;5.01;76.46;97818.81;5074906;28;4499;-79
2023/01/13 04:15:58;;;;;;;;;;;;;;;5.20;75.74;97819.28;5077197;28;4866;-79
2023/01/13 04:18:27;;;;;;;;;;;;;;;5.14;76.09;97809.59;5084410;28;4754;-79
2023/01/13 04:20:55;;;;;;;;;;;;;;;5.14;76.05;97802.41;5081861;28;4580;-79
2023/01/13 04:23:22;;;;;;;;;;;;;;;5.05;76.13;97803.91;5083234;28;4599;-79
2023/01/13 04:25:48;;;;;;;;;;;;;;;5.00;76.50;97798.53;5093382;28;4527;-79
2023/01/13 04:28:14;;;;;;;;;;;;;;;5.14;75.97;97794.41;5093267;28;4816;-79
2023/01/13 04:30:41;;;;;;;;;;;;;;;5.22;75.80;97796.63;5074736;28;4389;-79
2023/01/13 04:33:08;;;;;;;;;;;;;;;5.07;76.28;97785.00;5095474;28;4400;-79
2023/01/13 04:35:34;;;;;;;;;;;;;;;5.09;76.35;97788.19;5076032;28;4420;-79
2023/01/13 04:38:01;;;;;;;;;;;;;;;5.21;75.78;97792.34;5079621;28;4439;-79
2023/01/13 04:40:27;;;;;;;;;;;;;;;5.16;75.98;97775.47;5075438;28;4463;-79
2023/01/13 04:42:54;;;;;;;;;;;;;;;5.11;75.93;97780.75;5077311;28;4475;-79
2023/01/13 04:45:21;;;;;;;;;;;;;;;5.06;76.09;97762.84;5092235;28;4471;-79
2023/01/13 04:47:47;;;;;;;;;;;;;;;5.23;75.85;97770.72;5095072;28;4412;-79
2023/01/13 04:50:14;;;;;;;;;;;;;;;5.23;75.80;97755.56;5076448;28;4346;-78
2023/01/13 04:52:40;;;;;;;;;;;;;;;5.19;75.73;97753.63;5094728;28;4539;-78
2023/01/13 04:55:07;;;;;;;;;;;;;;;5.23;75.70;97746.72;5092905;28;4488;-78
2023/01/13 04:57:34;;;;;;;;;;;;;;;5.32;75.37;97744.41;5093868;28;4412;-78
2023/01/13 05:00:00;;;;;;;;;;;;;;;5.28;75.63;97744.09;5076355;28;4401;-79
2023/01/13 05:02:27;;;;;;;;;;;;;;;5.18;75.75;97747.50;5092220;28;4400;-78
2023/01/13 05:04:53;;;;;;;;;;;;;;;5.11;76.08;97754.88;5077468;28;4461;-78
2023/01/13 05:07:20;;;;;;;;;;;;;;;5.22;75.56;97745.91;5094619;28;4451;-79
2023/01/13 05:09:47;;;;;;;;;;;;;;;5.15;75.90;97763.22;5091234;28;4381;-79
2023/01/13 05:17:42;;;;;;;;;;;;;;;5.23;75.77;97768.91;5076228;28;4423;-79
2023/01/13 05:20:09;;;;;;;;;;;;;;;5.31;75.36;97756.94;5077735;28;4812;-79
2023/01/13 05:25:23;;;;;;;;;;;;;;;5.32;75.36;97755.88;5093036;28;4474;-78
2023/01/13 05:27:50;;;;;;;;;;;;;;;5.17;75.97;97769.06;5078136;28;4449;-79
2023/01/13 05:30:17;;;;;;;;;;;;;;;5.18;75.99;97754.69;5091527;28;4456;-78
2023/01/13 05:32:43;;;;;;;;;;;;;;;5.20;75.83;97756.03;5078034;28;4345;-78
2023/01/13 05:35:10;;;;;;;;;;;;;;;5.20;75.87;97761.38;5094275;28;4372;-79
2023/01/13 05:37:36;;;;;;;;;;;;;;;5.21;75.84;97756.84;5091928;28;4451;-79
2023/01/13 05:45:31;;;;;;;;;;;;;;;5.30;75.50;97762.53;5082865;28;4591;-78
2023/01/13 05:47:58;;;;;;;;;;;;;;;5.25;75.79;97768.63;5099902;28;4434;-79
2023/01/13 05:50:25;;;;;;;;;;;;;;;5.17;75.85;97769.06;5096058;28;4313;-79
2023/01/13 05:52:51;;;;;;;;;;;;;;;5.17;75.89;97772.53;5096966;28;4431;-79
2023/01/13 05:55:18;;;;;;;;;;;;;;;5.27;75.82;97776.41;5098090;28;4611;-79
2023/01/13 05:57:44;;;;;;;;;;;;;;;5.21;75.85;97775.53;5080009;28;4416;-79
2023/01/13 06:00:11;;;;;;;;;;;;;;;5.31;75.35;97772.94;5080324;28;4438;-78
2023/01/13 06:02:37;;;;;;;;;;;;;;;5.24;75.67;97777.69;5088617;28;4192;-78
2023/01/13 06:05:04;;;;;;;;;;;;;;;5.31;75.55;97774.81;5061438;28;4380;-79
2023/01/13 06:07:30;;;;;;;;;;;;;;;5.33;75.48;97773.50;5068131;28;4670;-78
2023/01/13 06:09:57;;;;;;;;;;;;;;;5.27;75.67;97773.72;5076754;28;4341;-78
2023/01/13 06:12:23;;;;;;;;;;;;;;;5.23;75.78;97778.75;5060065;28;4320;-78
2023/01/13 06:14:50;;;;;;;;;;;;;;;5.29;75.65;97774.25;5064730;28;4174;-78
2023/01/13 06:17:16;;;;;;;;;;;;;;;5.20;75.77;97780.03;5080689;28;4217;-79
2023/01/13 06:19:43;;;;;;;;;;;;;;;5.24;75.77;97773.16;5096754;28;4496;-80
2023/01/13 06:22:10;;;;;;;;;;;;;;;5.36;75.27;97769.53;5077396;28;4418;-79
2023/01/13 06:24:36;;;;;;;;;;;;;;;5.33;75.26;97773.50;5095795;28;4618;-79
2023/01/13 06:27:03;;;;;;;;;;;;;;;5.27;75.74;97774.53;5092126;28;4275;-78
2023/01/13 06:29:29;;;;;;;;;;;;;;;5.28;75.45;97776.13;5074262;28;4855;-79
2023/01/13 06:31:56;;;;;;;;;;;;;;;5.33;75.49;97776.19;5089038;28;4453;-79
2023/01/13 06:34:22;;;;;;;;;;;;;;;5.30;75.42;97767.88;5079326;28;4569;-79
2023/01/13 06:36:49;;;;;;;;;;;;;;;5.34;75.40;97776.97;5087120;28;4477;-78
2023/01/13 06:39:15;;;;;;;;;;;;;;;5.34;75.46;97774.31;5089801;28;4611;-78
2023/01/13 06:44:26;;;;;;;;;;;;;;;5.33;75.33;97781.53;5079070;28;4623;-78
2023/01/13 06:46:52;;;;;;;;;;;;;;;5.41;75.25;97781.06;5075404;28;5020;-78
2023/01/13 06:49:19;;;;;;;;;;;;;;;5.43;75.33;97772.78;5093580;28;4640;-78
2023/01/13 06:51:46;;;;;;;;;;;;;;;5.33;75.39;97778.06;5079692;28;4568;-78
2023/01/13 06:54:12;;;;;;;;;;;;;;;5.30;75.42;97790.03;5090366;28;4608;-78
2023/01/13 06:56:39;;;;;;;;;;;;;;;5.43;75.21;97788.81;5092318;28;4465;-79
2023/01/13 06:59:05;;;;;;;;;;;;;;;5.35;75.38;97795.41;5077131;28;4473;-78
2023/01/13 07:01:32;;;;;;;;;;;;;;;5.30;75.55;97800.72;5077728;28;4811;-77
2023/01/13 07:04:01;;;;;;;;;;;;;;;5.37;75.37;97803.97;5087886;28;4684;-77
2023/01/13 07:06:28;;;;;;;;;;;;;;;5.37;75.25;97803.16;5090439;28;4646;-78
2023/01/13 07:08:54;;;;;;;;;;;;;;;5.35;75.39;97811.41;5091025;28;4809;-78
2023/01/13 07:11:21;;;;;;;;;;;;;;;5.42;75.12;97808.56;5091040;28;4638;-79
2023/01/13 07:16:32;;;;;;;;;;;;;;;5.34;75.47;97815.16;5076598;28;4524;-78
2023/01/13 07:18:58;;;;;;;;;;;;;;;5.28;75.74;97815.34;5091575;28;4565;-78
2023/01/13 07:21:25;;;;;;;;;;;;;;;5.38;75.45;97818.13;5092829;28;4555;-78
2023/01/13 07:23:51;;;;;;;;;;;;;;;5.41;75.37;97822.94;5090383;28;4534;-78
2023/01/13 07:26:18;;;;;;;;;;;;;;;5.39;75.33;97823.22;5090553;28;4935;-78
2023/01/13 07:28:44;;;;;;;;;;;;;;;5.40;75.34;97818.66;5074431;28;4609;-78
2023/01/13 07:31:11;;;;;;;;;;;;;;;5.38;75.49;97829.63;5091792;28;4600;-78
2023/01/13 07:33:38;;;;;;;;;;;;;;;5.36;75.65;97825.59;5089713;28;4612;-78
2023/01/13 07:36:04;;;;;;;;;;;;;;;5.33;75.67;97834.91;5074839;28;4677;-79
2023/01/13 07:38:31;;;;;;;;;;;;;;;5.44;75.34;97835.78;5059708;28;4617;-78
2023/01/13 07:40:57;;;;;;;;;;;;;;;5.43;75.49;97834.97;5089796;28;4384;-77
2023/01/13 07:43:43;;;;;;;;;;;;;;;5.35;75.65;97840.78;5077528;28;4469;-78
2023/01/13 07:46:10;;;;;;;;;;;;;;;5.37;75.51;97836.00;5065599;28;4435;-78
2023/01/13 07:48:36;;;;;;;;;;;;;;;5.37;75.39;97840.53;5074639;28;4809;-78
2023/01/13 07:51:03;;;;;;;;;;;;;;;5.37;75.64;97843.19;5077072;28;4420;-78
2023/01/13 07:53:29;;;;;;;;;;;;;;;5.41;75.34;97833.63;5070253;28;4387;-78
2023/01/13 07:55:56;;;;;;;;;;;;;;;5.40;75.65;97846.16;5056735;28;4633;-78
2023/01/13 07:58:23;;;;;;;;;;;;;;;5.31;75.82;97830.88;5072749;28;4428;-78
2023/01/13 08:00:49;;;;;;;;;;;;;;;5.39;75.52;97833.09;5061321;28;4383;-78
2023/01/13 08:03:16;;;;;;;;;;;;;;;5.35;75.75;97837.28;5076067;28;4247;-78
2023/01/13 08:05:42;;;;;;;;;;;;;;;5.39;75.37;97836.56;5075158;28;4538;-78
2023/01/13 08:08:09;;;;;;;;;;;;;;;5.45;75.37;97837.41;5073795;28;4476;-78
2023/01/13 08:10:36;;;;;;;;;;;;;;;5.35;75.53;97838.09;5090056;28;4506;-78
2023/01/13 08:13:18;;;;;;;;;;;;;;;5.37;75.51;97843.19;5089819;28;4469;-78
2023/01/13 08:15:45;;;;;;;;;;;;;;;5.35;75.76;97843.44;5090367;28;4543;-78
2023/01/13 08:18:11;;;;;;;;;;;;;;;5.37;75.74;97856.53;5080622;28;4435;-78
2023/01/13 08:20:38;;;;;;;;;;;;;;;5.42;75.48;97849.41;5076846;28;4617;-78
2023/01/13 08:23:05;;;;;;;;;;;;;;;5.35;75.62;97851.44;5078829;28;4244;-78
2023/01/13 08:25:31;;;;;;;;;;;;;;;5.39;75.46;97851.78;5090436;28;4653;-78
2023/01/13 08:27:59;;;;;;;;;;;;;;;5.32;75.82;97846.63;5090920;28;4622;-78
2023/01/13 08:30:25;;;;;;;;;;;;;;;5.34;75.68;97844.50;5091952;28;4655;-78
2023/01/13 08:32:52;;;;;;;;;;;;;;;5.36;75.49;97849.59;5089032;28;4509;-78
2023/01/13 08:35:18;;;;;;;;;;;;;;;5.28;75.88;97842.84;5089225;28;4532;-78
2023/01/13 08:37:45;;;;;;;;;;;;;;;5.29;76.04;97848.97;5089095;28;5002;-78
2023/01/13 08:40:11;;;;;;;;;;;;;;;5.27;75.95;97849.25;5076068;28;4539;-78
2023/01/13 08:42:38;;;;;;;;;;;;;;;5.29;75.84;97839.09;5075600;28;4540;-78
2023/01/13 08:45:05;;;;;;;;;;;;;;;5.34;75.74;97841.03;5074270;28;4559;-78
2023/01/13 08:47:31;;;;;;;;;;;;;;;5.40;75.65;97837.34;5078505;28;4534;-78
2023/01/13 08:49:58;;;;;;;;;;;;;;;5.39;75.68;97844.56;5088677;28;4514;-78
2023/01/13 08:52:24;;;;;;;;;;;;;;;5.35;75.71;97843.44;5090586;28;4522;-78
2023/01/13 08:54:51;;;;;;;;;;;;;;;5.38;75.75;97853.66;5087665;28;4496;-79
2023/01/13 08:57:18;;;;;;;;;;;;;;;5.32;75.94;97851.94;5088978;28;4368;-78
2023/01/13 08:59:45;;;;;;;;;;;;;;;5.27;76.07;97851.13;5087255;28;4539;-78
2023/01/13 09:02:11;;;;;;;;;;;;;;;5.29;76.13;97851.66;5079796;28;4879;-78
2023/01/13 09:04:38;;;;;;;;;;;;;;;5.40;75.57;97853.38;5091935;28;4782;-78
2023/01/13 09:07:05;;;;;;;;;;;;;;;5.32;76.05;97861.81;5091228;28;4492;-78
2023/01/13 09:09:31;;;;;;;;;;;;;;;5.32;76.00;97859.16;5079136;28;4611;-78
2023/01/13 09:14:42;;;;;;;;;;;;;;;5.43;75.35;97869.69;5090523;28;4583;-78
2023/01/13 09:17:09;;;;;;;;;;;;;;;5.42;75.40;97870.75;5089367;28;4531;-77
2023/01/13 09:19:36;;;;;;;;;;;;;;;5.27;75.92;97867.94;5090218;28;4805;-78
2023/01/13 09:22:03;;;;;;;;;;;;;;;5.32;76.02;97872.50;5090037;28;4476;-78
2023/01/13 09:24:30;;;;;;;;;;;;;;;5.41;75.42;97877.16;5090215;28;4765;-78
2023/01/13 09:26:56;;;;;;;;;;;;;;;5.43;75.52;97872.34;5088552;28;4645;-78
2023/01/13 09:29:23;;;;;;;;;;;;;;;5.36;75.86;97874.44;5072572;28;4766;-78
2023/01/13 09:31:49;;;;;;;;;;;;;;;5.43;75.59;97876.91;5088454;28;4979;-79
2023/01/13 09:37:01;;;;;;;;;;;;;;;5.30;75.82;97869.28;5091511;28;4780;-80
2023/01/13 09:39:27;;;;;;;;;;;;;;;5.27;75.85;97885.81;5087584;28;4667;-80
2023/01/13 09:44:38;;;;;;;;;;;;;;;5.38;75.57;97875.00;5090840;28;4599;-79
2023/01/13 09:47:05;;;;;;;;;;;;;;;5.43;75.42;97874.22;5091949;28;4543;-79
2023/01/13 09:49:31;;;;;;;;;;;;;;;5.38;75.62;97880.34;5072782;28;4595;-79
2023/01/13 09:51:58;;;;;;;;;;;;;;;5.43;75.47;97882.22;5075552;28;4488;-79
2023/01/13 09:54:25;;;;;;;;;;;;;;;5.43;75.59;97883.03;5089788;28;5660;-79
2023/01/13 09:56:52;;;;;;;;;;;;;;;5.44;75.39;97873.16;5076011;28;4551;-79
2023/01/13 09:59:18;;;;;;;;;;;;;;;5.37;75.69;97873.38;5088671;28;4716;-79
2023/01/13 10:01:45;;;;;;;;;;;;;;;5.28;75.87;97868.72;5073615;28;4485;-78
2023/01/13 10:04:12;;;;;;;;;;;;;;;5.29;75.96;97873.81;5076086;28;4544;-78
2023/01/13 10:06:41;;;;;;;;;;;;;;;5.35;75.45;97878.13;5070851;28;4560;-79
2023/01/13 10:09:07;;;;;;;;;;;;;;;5.34;75.91;97875.72;5088087;28;4599;-79
2023/01/13 10:14:19;;;;;;;;;;;;;;;5.32;75.66;97875.16;5074817;28;4469;-79
2023/01/13 10:16:46;;;;;;;;;;;;;;;5.31;75.84;97874.38;5088676;28;4501;-79
2023/01/13 10:19:12;;;;;;;;;;;;;;;5.32;75.84;97875.97;5072661;28;4523;-79
2023/01/13 10:21:39;;;;;;;;;;;;;;;5.36;75.69;97862.94;5088202;28;4673;-79
2023/01/13 10:24:06;;;;;;;;;;;;;;;5.31;75.75;97871.69;5071738;28;4637;-79
2023/01/13 10:26:33;;;;;;;;;;;;;;;5.35;75.93;97877.34;5086959;28;4664;-79
2023/01/13 10:28:59;;;;;;;;;;;;;;;5.29;76.10;97873.00;5091155;28;4710;-79
2023/01/13 10:31:26;;;;;;;;;;;;;;;5.31;76.04;97877.03;5091937;28;4549;-79
2023/01/13 10:33:52;;;;;;;;;;;;;;;5.43;75.64;97879.56;5091192;28;4640;-79
2023/01/13 10:36:20;;;;;;;;;;;;;;;5.33;75.83;97882.13;5074415;28;4807;-79
2023/01/13 10:38:47;;;;;;;;;;;;;;;5.41;75.27;97876.31;5090586;28;4951;-79
2023/01/13 10:41:15;;;;;;;;;;;;;;;5.27;75.86;97873.28;5078254;28;4537;-79
2023/01/13 10:43:42;;;;;;;;;;;;;;;5.33;75.45;97871.47;5076978;28;4679;-79
2023/01/13 10:46:09;;;;;;;;;;;;;;;5.24;75.95;97871.09;5067247;28;4395;-79
2023/01/13 10:48:38;;;;;;;;;;;;;;;5.30;75.76;97866.63;5067848;28;4692;-79
2023/01/13 10:51:05;;;;;;;;;;;;;;;5.27;75.95;97870.59;5084070;28;4455;-79
2023/01/13 10:53:31;;;;;;;;;;;;;;;5.26;76.03;97874.31;5091015;28;4527;-79
2023/01/13 10:55:58;;;;;;;;;;;;;;;5.34;75.80;97865.06;5093642;28;4438;-79
2023/01/13 10:58:25;;;;;;;;;;;;;;;5.16;76.33;97875.00;5075137;28;4454;-79
2023/01/13 11:00:51;;;;;;;;;;;;;;;5.24;76.17;97879.09;5093857;28;4474;-79
2023/01/13 11:03:18;;;;;;;;;;;;;;;5.29;76.02;97873.00;5091253;28;4300;-79
2023/01/13 11:05:44;;;;;;;;;;;;;;;5.33;75.72;97869.59;5078374;28;4363;-79
2023/01/13 11:08:11;;;;;;;;;;;;;;;5.21;76.14;97869.72;5071704;28;4675;-79
2023/01/13 11:10:38;;;;;;;;;;;;;;;5.23;76.08;97874.81;5090259;28;4795;-78
2023/01/13 11:13:04;;;;;;;;;;;;;;;5.25;75.96;97878.03;5079267;28;4790;-79
2023/01/13 11:15:31;;;;;;;;;;;;;;;5.32;75.84;97877.84;5074440;28;4735;-79
2023/01/13 11:17:59;;;;;;;;;;;;;;;5.27;75.88;97875.13;5093305;28;4782;-79
2023/01/13 11:20:30;;;;;;;;;;;;;;;5.18;76.30;97872.91;5076227;28;4942;-79
2023/01/13 11:22:58;;;;;;;;;;;;;;;5.23;76.06;97882.81;5092540;28;4907;-79
2023/01/13 11:25:31;;;;;;;;;;;;;;;5.31;75.93;97881.56;5092929;28;4582;-79
2023/01/13 11:27:57;;;;;;;;;;;;;;;5.22;76.13;97878.53;5093214;28;4791;-79
2023/01/13 11:30:24;;;;;;;;;;;;;;;5.24;76.19;97882.56;5092083;28;4872;-79
2023/01/13 11:32:50;;;;;;;;;;;;;;;5.31;75.50;97882.38;5092829;28;4438;-79
2023/01/13 11:35:17;;;;;;;;;;;;;;;5.34;75.55;97871.19;5089750;28;4694;-79
2023/01/13 11:37:44;;;;;;;;;;;;;;;5.27;75.88;97880.47;5092486;28;4390;-79
2023/01/13 11:40:10;;;;;;;;;;;;;;;5.23;76.14;97883.63;5092154;28;4811;-79
2023/01/13 11:42:37;;;;;;;;;;;;;;;5.24;76.28;97879.91;5092533;28;4786;-79
2023/01/13 11:45:03;;;;;;;;;;;;;;;5.29;75.97;97881.00;5091963;28;4744;-79
2023/01/13 11:47:29;;;;;;;;;;;;;;;5.40;75.58;97880.06;5092801;28;4539;-79
2023/01/13 11:49:56;;;;;;;;;;;;;;;5.32;75.75;97880.50;5092316;28;4791;-79
2023/01/13 11:52:23;;;;;;;;;;;;;;;5.28;75.94;97882.88;5090645;28;4786;-79
2023/01/13 11:54:50;;;;;;;;;;;;;;;5.22;76.16;97867.88;5093966;28;4779;-80
2023/01/13 11:57:16;;;;;;;;;;;;;;;5.21;76.32;97871.59;5091079;28;4775;-79
2023/01/13 11:59:43;;;;;;;;;;;;;;;5.15;76.41;97868.06;5092341;28;4787;-79
2023/01/13 12:02:09;;;;;;;;;;;;;;;5.29;75.86;97878.34;5081445;28;4849;-79
2023/01/13 12:04:36;;;;;;;;;;;;;;;5.27;76.02;97878.59;5076168;28;4240;-79
2023/01/13 12:07:06;;;;;;;;;;;;;;;5.23;76.20;97869.47;5066091;28;4858;-79
2023/01/13 12:09:35;;;;;;;;;;;;;;;5.19;76.32;97871.84;5075751;28;4150;-79
2023/01/13 12:12:21;;;;;;;;;;;;;;;5.19;76.31;97873.69;5073648;28;4816;-78
2023/01/13 12:14:48;;;;;;;;;;;;;;;5.22;76.04;97878.53;5060094;28;4680;-79
2023/01/13 12:17:15;;;;;;;;;;;;;;;5.15;76.27;97875.28;5070869;28;4855;-80
2023/01/13 12:19:41;;;;;;;;;;;;;;;5.17;76.53;97883.81;5072011;28;4753;-79
2023/01/13 12:22:08;;;;;;;;;;;;;;;5.28;76.11;97884.75;5082691;28;4623;-79
2023/01/13 12:24:35;;;;;;;;;;;;;;;5.21;76.14;97887.63;5075119;28;4304;-79
2023/01/13 12:27:01;;;;;;;;;;;;;;;5.27;76.01;97883.13;5075074;28;4416;-79
2023/01/13 12:29:28;;;;;;;;;;;;;;;5.28;76.10;97880.22;5074812;28;4777;-78
2023/01/13 12:31:54;;;;;;;;;;;;;;;5.21;76.26;97884.94;5071774;28;4494;-78
2023/01/13 12:34:21;;;;;;;;;;;;;;;5.24;76.26;97885.25;5074162;28;4857;-79
2023/01/13 12:36:47;;;;;;;;;;;;;;;5.23;76.05;97875.63;5075835;28;4459;-79
2023/01/13 12:39:14;;;;;;;;;;;;;;;5.19;76.15;97882.50;5064052;28;4462;-78
2023/01/13 12:44:15;;;;;;;;;;;;;;;5.21;76.24;97879.59;5058782;28;4206;-78
2023/01/13 12:44:26;;;;;;;;;;;;;;;5.32;75.73;97883.19;5059845;28;4704;-79
2023/01/13 12:46:54;;;;;;;;;;;;;;;5.22;76.23;97867.88;5073109;28;4431;-79
2023/01/13 12:49:21;;;;;;;;;;;;;;;5.07;76.76;97873.03;5082373;28;4273;-79
2023/01/13 12:51:48;;;;;;;;;;;;;;;5.13;76.75;97882.72;5079438;28;4405;-79
2023/01/13 12:54:14;;;;;;;;;;;;;;;5.18;76.14;97877.44;5089272;28;4474;-79
2023/01/13 12:56:43;;;;;;;;;;;;;;;5.19;76.29;97879.03;5073187;28;4368;-79
2023/01/13 12:59:09;;;;;;;;;;;;;;;5.28;76.18;97882.88;5075164;28;4967;-79
2023/01/13 13:01:36;;;;;;;;;;;;;;;5.17;76.36;97881.16;5089139;28;4472;-79
2023/01/13 13:04:03;;;;;;;;;;;;;;;5.18;76.42;97885.44;5091925;28;4336;-79
2023/01/13 13:06:29;;;;;;;;;;;;;;;5.15;76.53;97876.06;5089407;28;4790;-79
2023/01/13 13:08:56;;;;;;;;;;;;;;;5.20;76.44;97885.97;5090920;28;4605;-80
2023/01/13 13:14:06;;;;;;;;;;;;;;;5.18;76.34;97880.91;5076787;28;4915;-80
2023/01/13 13:16:35;;;;;;;;;;;;;;;5.18;76.15;97885.44;5074240;28;4722;-80
2023/01/13 13:19:01;;;;;;;;;;;;;;;5.22;76.20;97881.22;5092001;28;4408;-80
2023/01/13 13:21:28;;;;;;;;;;;;;;;5.20;76.21;97888.66;5089174;28;4867;-80
2023/01/13 13:23:54;;;;;;;;;;;;;;;5.23;76.08;97885.47;5090348;28;4603;-80
2023/01/13 13:26:22;;;;;;;;;;;;;;;5.26;76.27;97887.66;5061528;28;4444;-80
2023/01/13 13:28:49;;;;;;;;;;;;;;;5.14;76.54;97889.66;5083124;28;4847;-80
2023/01/13 13:31:16;;;;;;;;;;;;;;;5.12;76.61;97889.13;5088015;28;4776;-80
2023/01/13 13:33:42;;;;;;;;;;;;;;;5.18;76.48;97886.25;5092635;28;4706;-80
2023/01/13 13:36:09;;;;;;;;;;;;;;;5.15;76.40;97886.75;5089597;28;4742;-80
2023/01/13 13:46:47;;;;;;;;;;;;;;;5.13;76.41;97883.50;5089331;28;4656;-79
2023/01/13 13:49:14;;;;;;;;;;;;;;;5.15;76.49;97888.63;5074385;28;4742;-79
2023/01/13 13:51:41;;;;;;;;;;;;;;;5.20;76.19;97891.31;5091110;28;4614;-80
2023/01/13 13:54:08;;;;;;;;;;;;;;;5.15;76.49;97893.94;5089531;28;4882;-79
2023/01/13 13:56:34;;;;;;;;;;;;;;;5.16;76.37;97901.69;5083833;28;4845;-79
2023/01/13 13:59:01;;;;;;;;;;;;;;;5.16;76.43;97906.22;5058374;28;4792;-79